Aérodrome :
LOGIN :

S'inscrire | Disclaimer

   EN    FR    IT 

 










Légende :    VFR   VFR Marginal   IFR   IFR Intensif   IFR Très Intensif
Visi : 
Plafond : 
>= 8 km
>= 3000ft
5 à 8 km
1000 à 3000 ft
1500m à 5 km
500 à 1000 ft
800 à 1500m
200 à 500 ft
< 800m
< 200 ft
Symboles :   Orages  Brouillard  Fortes neiges  Fortes précipitations  Vent > 20 kt
SIGMETs :   Divers  Orages  Givrage  Turbulence  Onde Orograph.  Cendres Volcan.







- Altitude de l'aérodrome : 459 ft
- Code IATA : CER
- Voir les cartes d'approche


LFRC - Cherbourg / Maupertus

DERNIER METAR :
  • 140800Z AUTO 27015KT 9999 SCT034 SCT046 BKN100 06/02 Q0998 TEMPO 26030G50KT 2000 TSRAGS SCT010 BKN015CB

METARs EXPIRÉS :
  • 140730Z AUTO 26016KT 9999 SCT032 06/02 Q0998 TEMPO 26030G50KT 2000 TSRAGS SCT010 BKN015CB
  • 140700Z AUTO 27018KT 9999 FEW019 SCT046 06/03 Q0998 TEMPO 26030G50KT 2000 TSRAGS SCT010 BKN015CB
  • 140630Z AUTO 26023KT 9999 FEW043 SCT068 BKN098 07/02 Q0998 TEMPO 26030G50KT 2000 TSRAGS SCT010 BKN015CB
  • 140600Z AUTO 26019KT 9999 FEW025 BKN090 BKN110 06/03 Q0999 TEMPO 26030G50KT 2000 TSRAGS SCT010 BKN015CB
  • 140530Z AUTO 25020KT 9999 -RA SCT026 SCT048 BKN072 06/03 Q0999 TEMPO 26030G50KT 2000 TSRAGS SCT010 BKN015CB

TAF TAF LFRC
Valide du 14 à 06h jusqu'au 14 à 15h UTC


140500Z 1406/1415 26020G30KT 9999 BKN025
TEMPO 1406/1415 26030G50KT 3000 SHRAGS SCT012 BKN020CB
PROB40
TEMPO 1406/1415 2000 TSRAGS SCT010 BKN015CB
Pas de NOTAMs connus pour ce terrain.
3 SIGMETs publiés pour la FIR Brest (LFRR) :
 
Annulation du SIGMET 2 
LFRR SIGMET 5 VALID 140610/140900 LFPW
LFRR BREST FIR/UIR CNL SIGMET 2 140700/140900=
Turbulence forte
LFRR SIGMET 3 VALID 140600/141000 LFPW
LFRR BREST FIR/UIR SEV TURB OBS AT 0600Z WI N4715 W00800 - N4900 W00800 - N5000 W00200 - N5000 W00015 - N4900 W00015 - N4830 W00400 - N4700 W00200 - N4715 W00800 SFC/FL060 STNR NC=
SIGMET 2  ANNULÉ :
Turbulence forte
LFRR SIGMET 2 VALID 140700/140900 LFPW
LFRR BREST FIR/UIR SEV TURB FCST WI N4730 W00800 - N4900 W00800 - N5000 W00200 - N4915 W00130 - N4830 W00445 - N4730 W00445 - N4730 W00800 SFC/FL050 STNR NC=



MET'MAP, la Météo Aéronautique d'un coup d'oeil ! - Copyright ORBIFLY Décembre 2007 - Disclaimer

ORBIFLY MET'MAP TEAM :

Programmation & Développement : Alexandra Zaïnal
Conception & Développement : Baudouin d'Aumeries
Co-Programmation & Développement : Marc-Olivier Méhu
Soutien technique & logistique : Manuel Goepfert

Contact : metmap@orbifly.com




SOURCES & CREDITS :

   NOAA